createdAt,value
2019-03-30T00:00:40.788Z,4.83
2019-03-30T00:06:43.525Z,4.80
2019-03-30T00:12:46.265Z,4.87
2019-03-30T00:18:49.254Z,5.33
2019-03-30T00:24:52.275Z,4.87
2019-03-30T00:30:55.022Z,4.73
2019-03-30T00:36:58.064Z,5.60
2019-03-30T00:43:00.801Z,6.73
2019-03-30T00:49:22.968Z,5.50
2019-03-30T00:55:25.796Z,6.43
2019-03-30T01:01:28.883Z,7.43
2019-03-30T01:07:31.609Z,6.10
2019-03-30T01:13:34.332Z,6.03
2019-03-30T01:19:37.132Z,8.37
2019-03-30T01:25:39.948Z,6.80
2019-03-30T01:31:42.679Z,6.03
2019-03-30T01:37:46.292Z,6.90
2019-03-30T01:43:49.020Z,6.43
2019-03-30T01:49:51.749Z,5.83
2019-03-30T01:55:54.576Z,8.60
2019-03-30T02:01:57.308Z,5.93
2019-03-30T02:08:00.039Z,5.43
2019-03-30T02:14:02.762Z,5.93
2019-03-30T02:20:06.631Z,6.97
2019-03-30T02:26:09.365Z,5.90
2019-03-30T02:32:12.097Z,5.90
2019-03-30T02:38:14.822Z,6.23
2019-03-30T02:44:17.561Z,5.70
2019-03-30T02:50:20.285Z,6.13
2019-03-30T02:56:23.017Z,4.50
2019-03-30T03:02:25.750Z,5.40
2019-03-30T03:08:28.511Z,5.27
2019-03-30T03:14:31.283Z,5.57
2019-03-30T03:20:34.035Z,4.97
2019-03-30T03:26:36.769Z,5.77
2019-03-30T03:32:39.514Z,5.73
2019-03-30T03:38:42.300Z,4.50
2019-03-30T03:44:45.170Z,5.30
2019-03-30T03:51:24.525Z,6.00
2019-03-30T03:57:12.328Z,5.77
2019-03-30T04:03:16.346Z,5.60
2019-03-30T04:09:19.855Z,4.83
2019-03-30T04:15:23.649Z,4.67
2019-03-30T04:21:42.815Z,5.63
2019-03-30T04:27:31.177Z,5.50
2019-03-30T04:33:33.978Z,5.13
2019-03-30T04:39:36.867Z,4.30
2019-03-30T04:45:39.591Z,6.10
2019-03-30T04:51:56.520Z,4.73
2019-03-30T04:57:49.859Z,5.77
2019-03-30T05:03:51.509Z,4.87
2019-03-30T05:09:54.284Z,3.80
2019-03-30T05:15:57.074Z,4.23
2019-03-30T05:22:11.355Z,3.97
2019-03-30T05:28:04.315Z,4.47
2019-03-30T05:34:07.087Z,4.57
2019-03-30T05:40:10.520Z,4.40
2019-03-30T05:46:13.303Z,4.43
2019-03-30T05:52:26.373Z,4.33
2019-03-30T05:58:20.646Z,3.93
2019-03-30T06:04:23.379Z,3.50
2019-03-30T06:10:26.116Z,4.47
2019-03-30T06:16:28.873Z,4.17
2019-03-30T06:22:40.295Z,4.63
2019-03-30T06:28:36.119Z,3.80
2019-03-30T06:34:38.857Z,3.87
2019-03-30T06:40:41.594Z,3.47
2019-03-30T06:46:44.341Z,3.57
2019-03-30T06:52:57.506Z,3.83
2019-03-30T06:58:51.551Z,4.10
2019-03-30T07:04:54.313Z,3.77
2019-03-30T07:10:57.068Z,4.47
2019-03-30T07:17:01.886Z,4.50
2019-03-30T07:23:11.622Z,5.53
2019-03-30T07:29:09.302Z,4.80
2019-03-30T07:35:12.037Z,6.47
2019-03-30T07:41:14.788Z,4.80
2019-03-30T07:47:17.519Z,8.23
2019-03-30T07:53:26.706Z,6.00
2019-03-30T07:59:24.707Z,8.00
2019-03-30T08:05:27.449Z,7.70
2019-03-30T08:11:30.256Z,8.60
2019-03-30T08:17:33.088Z,6.50
2019-03-30T08:23:40.458Z,6.30
2019-03-30T08:29:40.287Z,6.43
2019-03-30T08:35:43.041Z,5.53
2019-03-30T08:41:45.809Z,5.27
2019-03-30T08:47:48.547Z,5.83
2019-03-30T08:53:54.770Z,4.43
2019-03-30T08:59:55.813Z,4.33
2019-03-30T09:05:58.551Z,4.20
2019-03-30T09:12:01.302Z,5.07
2019-03-30T09:18:04.228Z,4.73
2019-03-30T09:24:10.016Z,4.47
2019-03-30T09:30:11.617Z,4.80
2019-03-30T09:36:14.351Z,4.27
2019-03-30T09:42:17.084Z,4.83
2019-03-30T09:48:19.831Z,3.77
2019-03-30T09:54:23.834Z,4.30
2019-03-30T10:00:26.904Z,4.23
2019-03-30T10:06:34.677Z,3.80
2019-03-30T10:12:35.674Z,3.97
2019-03-30T10:18:38.406Z,3.60
2019-03-30T10:24:41.176Z,3.30
2019-03-30T10:30:43.933Z,3.27
2019-03-30T10:36:46.704Z,2.70
2019-03-30T10:42:49.457Z,3.20
2019-03-30T10:48:52.560Z,3.00
2019-03-30T10:54:55.423Z,4.00
2019-03-30T11:00:58.601Z,3.10
2019-03-30T11:07:01.446Z,2.70
2019-03-30T11:13:04.604Z,2.90
2019-03-30T11:19:07.650Z,2.60
2019-03-30T11:25:10.489Z,3.30
2019-03-30T11:31:13.300Z,3.13
2019-03-30T11:37:16.077Z,3.27
2019-03-30T11:43:18.839Z,2.50
2019-03-30T11:49:21.685Z,2.63
2019-03-30T11:55:24.415Z,2.53
2019-03-30T12:01:27.456Z,3.17
2019-03-30T12:07:30.202Z,2.47
2019-03-30T12:13:32.952Z,3.10
2019-03-30T12:19:35.719Z,3.00
2019-03-30T12:25:38.456Z,3.43
2019-03-30T12:31:41.225Z,3.10
2019-03-30T12:37:43.972Z,3.10
2019-03-30T12:43:47.029Z,3.20
2019-03-30T12:49:49.760Z,2.77
2019-03-30T12:55:52.842Z,3.57
2019-03-30T13:01:55.583Z,3.30
2019-03-30T13:07:58.336Z,3.43
2019-03-30T13:14:01.080Z,3.90
2019-03-30T13:20:05.185Z,4.97
2019-03-30T13:26:08.013Z,4.07
2019-03-30T13:32:10.785Z,3.93
2019-03-30T13:38:13.553Z,3.27
2019-03-30T13:44:16.279Z,3.80
2019-03-30T13:50:19.010Z,3.40
2019-03-30T13:56:21.745Z,3.53
2019-03-30T14:02:24.476Z,3.00
2019-03-30T14:08:27.200Z,3.20
2019-03-30T14:14:29.964Z,2.83
2019-03-30T14:20:32.696Z,3.30
2019-03-30T14:26:35.741Z,3.20
2019-03-30T14:32:38.468Z,2.90
2019-03-30T14:38:41.196Z,2.43
2019-03-30T14:44:43.931Z,2.80
2019-03-30T14:50:46.957Z,2.90
2019-03-30T14:56:49.696Z,2.57
2019-03-30T15:02:52.432Z,2.73
2019-03-30T15:08:55.177Z,2.50
2019-03-30T15:15:17.341Z,2.70
2019-03-30T15:21:20.080Z,2.40
2019-03-30T15:27:23.384Z,2.80
2019-03-30T15:33:26.116Z,2.97
2019-03-30T15:39:29.137Z,2.60
2019-03-30T15:45:31.922Z,2.10
2019-03-30T15:51:37.581Z,2.30
2019-03-30T15:57:39.464Z,2.27
2019-03-30T16:03:42.191Z,2.30
2019-03-30T16:09:44.928Z,2.40
2019-03-30T16:15:47.832Z,2.50
2019-03-30T16:21:50.609Z,2.47
2019-03-30T16:27:53.383Z,2.70
2019-03-30T16:33:56.221Z,2.30
2019-03-30T16:39:58.962Z,3.00
2019-03-30T16:46:01.728Z,2.57
2019-03-30T16:52:04.483Z,3.43
2019-03-30T16:58:07.301Z,2.30
2019-03-30T17:04:10.044Z,2.80
2019-03-30T17:10:13.080Z,2.33
2019-03-30T17:16:16.098Z,2.20
2019-03-30T17:22:18.843Z,2.43
2019-03-30T17:28:21.600Z,2.17
2019-03-30T17:34:24.380Z,2.70
2019-03-30T17:40:27.113Z,2.60
2019-03-30T17:46:29.873Z,2.30
2019-03-30T17:52:32.612Z,2.30
2019-03-30T17:58:35.351Z,2.13
2019-03-30T18:04:39.078Z,2.20
2019-03-30T18:10:41.953Z,2.73
2019-03-30T18:16:44.685Z,2.60
2019-03-30T18:22:47.419Z,2.80
2019-03-30T18:28:50.152Z,3.17
2019-03-30T18:34:52.885Z,3.10
2019-03-30T18:40:55.631Z,9.47
2019-03-30T18:46:58.441Z,9.40
2019-03-30T18:53:01.504Z,9.17
2019-03-30T18:59:04.293Z,12.13
2019-03-30T19:05:07.057Z,11.60
2019-03-30T19:11:10.131Z,13.07
2019-03-30T19:17:13.040Z,16.37
2019-03-30T19:23:15.794Z,16.00
2019-03-30T19:29:18.557Z,12.73
2019-03-30T19:35:21.483Z,12.40
2019-03-30T19:41:24.228Z,10.87
2019-03-30T19:47:26.972Z,10.17
2019-03-30T19:53:29.992Z,10.83
2019-03-30T19:59:33.101Z,9.53
2019-03-30T20:05:35.840Z,10.13
2019-03-30T20:11:40.138Z,10.90
2019-03-30T20:17:42.908Z,8.23
2019-03-30T20:23:45.742Z,8.00
2019-03-30T20:29:48.487Z,8.40
2019-03-30T20:35:51.224Z,8.47
2019-03-30T20:41:53.967Z,7.67
2019-03-30T20:47:56.689Z,7.67
2019-03-30T20:53:59.467Z,7.23
2019-03-30T21:00:02.893Z,7.23
2019-03-30T21:06:06.193Z,7.27
2019-03-30T21:12:08.926Z,6.10
2019-03-30T21:18:11.668Z,7.00
2019-03-30T21:24:14.426Z,6.70
2019-03-30T21:30:17.191Z,6.50
2019-03-30T21:36:19.932Z,6.23
2019-03-30T21:42:22.679Z,6.70
2019-03-30T21:48:25.425Z,6.37
2019-03-30T21:54:28.627Z,6.57
2019-03-30T22:00:38.885Z,6.07
2019-03-30T22:06:41.672Z,6.10
2019-03-30T22:12:44.413Z,5.97
2019-03-30T22:18:47.174Z,5.80
2019-03-30T22:24:49.926Z,5.60
2019-03-30T22:30:52.708Z,5.87
2019-03-30T22:36:55.440Z,5.47
2019-03-30T22:42:58.214Z,5.83
2019-03-30T22:49:01.033Z,5.30
2019-03-30T22:55:05.345Z,5.80
2019-03-30T23:01:08.076Z,5.53
2019-03-30T23:07:11.153Z,5.50
2019-03-30T23:13:14.280Z,5.27
2019-03-30T23:19:17.000Z,5.63
2019-03-30T23:25:19.745Z,5.27
2019-03-30T23:31:22.768Z,5.53
2019-03-30T23:37:25.506Z,5.50
2019-03-30T23:43:28.251Z,5.43
2019-03-30T23:49:31.043Z,5.33
2019-03-30T23:55:33.784Z,5.00
